DAAT/TMR METAR and TAF weather

Enter ICAO airport designator
Station Type Date Time Source
DAAT METAR 2020/01/21 21:30 UTC NOAA

DAAT 212130Z 08009KT 6000 FEW046 15/M09 Q1025


Station Type Date Time Source
DAAT Decoded METAR 2020/01/21 21:30 UTC NOAA

Tamanrasset / Aguenna, Algeria (DAAT) 22-49N 005-28E
Jan 21, 2020 - 04:30 PM EST / 2020.01.21 2130 UTC
Wind: from the E (080 degrees) at 10 MPH (9 KT):0
Visibility: 3 mile(s):0
Sky conditions: mostly clear
Temperature: 59 F (15 C)
Dew Point: 15 F (-9 C)
Relative Humidity: 18%
Pressure (altimeter): 30.27 in. Hg (1025 hPa)
ob: DAAT 212130Z 08009KT 6000 FEW046 15/M09 Q1025
cycle: 21

Station Type Date Time Source
DAAT TAF 2020/01/21 18:36 UTC NOAA

TAF DAAT 211700Z 2118/2218 08012KT 8000 NSC PROB30
TEMPO 2118/2121 13015G25KT 5000 DRSA
TEMPO 2202/2208 09022KT

Example: see airport list